Terminal Aerodrome Forecast
Issued by NWS Pueblo, CO

Current Version | Previous Version | Text Only | Print | Product List | Glossary On
Versions: 1 2 3 4 5 6 7 8 9 10 11 12 13 14 15 16 17 18 19 20 21 22 23 24 25 26 27 28 29 30 31 32 33 34 35 36 37 38 39
000
FTUS45 KPUB 301013 AAC
TAFPUB
TAF AMD
KPUB 301013Z 3010/3106 10005KT P6SM SCT007 BKN040 BKN070
      TEMPO 3010/3014 BKN007
     FM301800 15008KT P6SM SCT070 SCT150
     FM302200 13010KT P6SM VCTS SCT070CB BKN130=

USA.gov is the U.S. government's official web portal to all federal, state and local government web resources and services.